createdAt,value
2022-09-07T00:00:00.305Z,16.6
2022-09-07T00:01:00.292Z,16.6
2022-09-07T00:02:00.305Z,16.6
2022-09-07T00:03:00.463Z,16.5
2022-09-07T00:04:00.348Z,16.5
2022-09-07T00:05:00.382Z,16.4
2022-09-07T00:06:00.314Z,16.4
2022-09-07T00:07:00.308Z,16.4
2022-09-07T00:08:00.307Z,16.4
2022-09-07T00:09:00.378Z,16.4
2022-09-07T00:10:00.289Z,16.4
2022-09-07T00:11:00.293Z,16.4
2022-09-07T00:12:00.354Z,16.4
2022-09-07T00:13:00.310Z,16.4
2022-09-07T00:14:00.277Z,16.4
2022-09-07T00:15:00.370Z,16.4
2022-09-07T00:16:00.414Z,16.3
2022-09-07T00:17:00.336Z,16.4
2022-09-07T00:18:00.385Z,16.4
2022-09-07T00:19:00.311Z,16.4
2022-09-07T00:20:00.400Z,16.4
2022-09-07T00:21:00.361Z,16.3
2022-09-07T00:22:00.400Z,16.3
2022-09-07T00:23:00.304Z,16.3
2022-09-07T00:24:00.294Z,16.3
2022-09-07T00:25:00.295Z,16.2
2022-09-07T00:26:00.326Z,16.2
2022-09-07T00:27:00.292Z,16.1
2022-09-07T00:28:00.393Z,16.1
2022-09-07T00:29:00.310Z,16.1
2022-09-07T00:30:00.395Z,16.1
2022-09-07T00:31:00.394Z,16.1
2022-09-07T00:32:00.316Z,16.1
2022-09-07T00:33:00.290Z,16.1
2022-09-07T00:34:00.309Z,16.1
2022-09-07T00:35:00.393Z,16.1
2022-09-07T00:36:00.377Z,16.0
2022-09-07T00:37:00.412Z,16.0
2022-09-07T00:38:00.384Z,16.0
2022-09-07T00:39:00.304Z,15.9
2022-09-07T00:40:00.526Z,15.9
2022-09-07T00:41:00.497Z,15.9
2022-09-07T00:42:00.346Z,15.9
2022-09-07T00:43:00.381Z,16.0
2022-09-07T00:44:00.341Z,15.9
2022-09-07T00:45:00.295Z,15.9
2022-09-07T00:46:00.383Z,15.8
2022-09-07T00:47:00.456Z,15.8
2022-09-07T00:48:00.310Z,15.8
2022-09-07T00:49:00.328Z,15.8
2022-09-07T00:50:00.314Z,15.8
2022-09-07T00:51:00.395Z,15.8
2022-09-07T00:52:00.286Z,15.8
2022-09-07T00:53:00.281Z,15.8
2022-09-07T00:54:00.290Z,15.8
2022-09-07T00:55:00.309Z,15.7
2022-09-07T00:56:00.414Z,15.7
2022-09-07T00:57:00.357Z,15.7
2022-09-07T00:58:00.279Z,15.6
2022-09-07T00:59:00.352Z,15.7
2022-09-07T01:00:00.321Z,15.7
2022-09-07T01:01:00.442Z,15.7
2022-09-07T01:02:00.443Z,15.7
2022-09-07T01:03:00.427Z,15.6
2022-09-07T01:04:00.318Z,15.5
2022-09-07T01:05:00.326Z,15.5
2022-09-07T01:06:00.310Z,15.5
2022-09-07T01:07:00.426Z,15.5
2022-09-07T01:08:00.316Z,15.5
2022-09-07T01:09:00.300Z,15.5
2022-09-07T01:10:00.283Z,15.5
2022-09-07T01:11:00.281Z,15.6
2022-09-07T01:12:00.309Z,15.6
2022-09-07T01:13:00.383Z,15.6
2022-09-07T01:14:00.363Z,15.6
2022-09-07T01:15:00.362Z,15.6
2022-09-07T01:16:00.419Z,15.6
2022-09-07T01:17:00.286Z,15.6
2022-09-07T01:18:00.306Z,15.6
2022-09-07T01:19:00.442Z,15.6
2022-09-07T01:20:00.323Z,15.6
2022-09-07T01:21:00.294Z,15.6
2022-09-07T01:22:00.362Z,15.6
2022-09-07T01:23:00.300Z,15.6
2022-09-07T01:24:00.313Z,15.6
2022-09-07T01:25:00.293Z,15.7
2022-09-07T01:26:00.372Z,15.7
2022-09-07T01:27:00.309Z,15.8
2022-09-07T01:28:00.373Z,15.8
2022-09-07T01:29:00.679Z,15.9
2022-09-07T01:30:00.301Z,15.9
2022-09-07T01:31:00.346Z,15.9
2022-09-07T01:32:00.292Z,16.0
2022-09-07T01:33:00.314Z,16.0
2022-09-07T01:34:00.393Z,16.1
2022-09-07T01:35:00.293Z,16.1
2022-09-07T01:36:00.299Z,16.2
2022-09-07T01:37:00.293Z,16.3
2022-09-07T01:38:00.314Z,16.3
2022-09-07T01:39:00.343Z,16.4
2022-09-07T01:40:00.537Z,16.4
2022-09-07T01:41:00.338Z,16.4
2022-09-07T01:42:00.305Z,16.4
2022-09-07T01:43:00.310Z,16.4
2022-09-07T01:44:00.426Z,16.4
2022-09-07T01:45:00.319Z,16.4
2022-09-07T01:46:00.470Z,16.4
2022-09-07T01:47:00.301Z,16.4
2022-09-07T01:48:00.300Z,16.4
2022-09-07T01:49:00.286Z,16.5
2022-09-07T01:50:00.297Z,16.5
2022-09-07T01:51:00.398Z,16.5
2022-09-07T01:52:00.316Z,16.5
2022-09-07T01:53:00.282Z,16.5
2022-09-07T01:54:00.314Z,16.4
2022-09-07T01:55:00.316Z,16.4
2022-09-07T01:56:00.314Z,16.4
2022-09-07T01:57:00.397Z,16.4
2022-09-07T01:58:00.314Z,16.5
2022-09-07T01:59:00.371Z,16.5
2022-09-07T02:00:00.329Z,16.6
2022-09-07T02:01:00.302Z,16.7
2022-09-07T02:02:00.355Z,16.7
2022-09-07T02:03:00.514Z,16.7
2022-09-07T02:04:00.343Z,16.8
2022-09-07T02:05:00.381Z,16.8
2022-09-07T02:06:00.330Z,16.9
2022-09-07T02:07:00.293Z,16.9
2022-09-07T02:08:00.331Z,16.9
2022-09-07T02:09:00.382Z,16.9
2022-09-07T02:10:00.295Z,17.0
2022-09-07T02:11:00.301Z,17.0
2022-09-07T02:12:00.404Z,17.0
2022-09-07T02:13:00.302Z,17.1
2022-09-07T02:14:00.294Z,17.1
2022-09-07T02:15:00.390Z,17.2
2022-09-07T02:16:00.377Z,17.2
2022-09-07T02:17:00.369Z,17.2
2022-09-07T02:18:00.299Z,17.2
2022-09-07T02:19:00.285Z,17.2
2022-09-07T02:20:00.317Z,17.3
2022-09-07T02:21:00.304Z,17.3
2022-09-07T02:22:00.296Z,17.3
2022-09-07T02:23:00.388Z,17.3
2022-09-07T02:24:00.308Z,17.3
2022-09-07T02:25:00.299Z,17.3
2022-09-07T02:26:00.294Z,17.3
2022-09-07T02:27:00.323Z,17.3
2022-09-07T02:28:00.297Z,17.3
2022-09-07T02:29:00.436Z,17.3
2022-09-07T02:30:00.422Z,17.3
2022-09-07T02:31:00.433Z,17.3
2022-09-07T02:32:00.768Z,17.3
2022-09-07T02:33:00.365Z,17.3
2022-09-07T02:34:00.376Z,17.3
2022-09-07T02:35:00.343Z,17.4
2022-09-07T02:36:00.297Z,17.4
2022-09-07T02:37:00.304Z,17.4
2022-09-07T02:38:00.484Z,17.4
2022-09-07T02:39:00.320Z,17.5
2022-09-07T02:40:00.418Z,17.5
2022-09-07T02:41:00.302Z,17.5
2022-09-07T02:42:00.296Z,17.5
2022-09-07T02:43:00.298Z,17.5
2022-09-07T02:44:00.395Z,17.5
2022-09-07T02:45:00.279Z,17.6
2022-09-07T02:46:00.438Z,17.6
2022-09-07T02:47:00.390Z,17.7
2022-09-07T02:48:00.289Z,17.7
2022-09-07T02:49:00.407Z,17.7
2022-09-07T02:50:00.314Z,17.8
2022-09-07T02:51:00.320Z,17.8
2022-09-07T02:52:00.306Z,17.8
2022-09-07T02:53:00.413Z,17.8
2022-09-07T02:54:00.300Z,17.8
2022-09-07T02:55:00.288Z,17.7
2022-09-07T02:56:00.312Z,17.7
2022-09-07T02:57:00.313Z,17.7
2022-09-07T02:58:00.287Z,17.7
2022-09-07T02:59:00.399Z,17.7
2022-09-07T03:00:00.318Z,17.7
2022-09-07T03:01:00.358Z,17.7
2022-09-07T03:02:00.298Z,17.7
2022-09-07T03:03:00.464Z,17.8
2022-09-07T03:04:00.406Z,17.7
2022-09-07T03:05:00.449Z,17.7
2022-09-07T03:06:00.302Z,17.7
2022-09-07T03:07:00.414Z,17.7
2022-09-07T03:08:00.307Z,17.7
2022-09-07T03:09:00.301Z,17.7
2022-09-07T03:10:00.290Z,17.6
2022-09-07T03:11:00.305Z,17.6
2022-09-07T03:12:00.406Z,17.7
2022-09-07T03:13:00.306Z,17.7
2022-09-07T03:14:00.319Z,17.7
2022-09-07T03:15:00.315Z,17.7
2022-09-07T03:16:00.398Z,17.7
2022-09-07T03:17:00.315Z,17.8
2022-09-07T03:18:00.353Z,17.9
2022-09-07T03:19:00.394Z,17.9
2022-09-07T03:20:00.320Z,18.0
2022-09-07T03:21:00.348Z,18.0
2022-09-07T03:22:00.303Z,18.1
2022-09-07T03:23:00.310Z,18.1
2022-09-07T03:24:00.450Z,18.2
2022-09-07T03:25:00.715Z,18.2
2022-09-07T03:26:00.455Z,18.3
2022-09-07T03:27:00.393Z,18.3
2022-09-07T03:28:00.286Z,18.3
2022-09-07T03:29:00.292Z,18.4
2022-09-07T03:30:00.300Z,18.4
2022-09-07T03:31:00.396Z,18.4
2022-09-07T03:32:00.442Z,18.5
2022-09-07T03:33:00.302Z,18.5
2022-09-07T03:34:00.621Z,18.6
2022-09-07T03:35:00.280Z,18.6
2022-09-07T03:36:00.297Z,18.6
2022-09-07T03:37:00.384Z,18.6
2022-09-07T03:38:00.295Z,18.6
2022-09-07T03:39:00.299Z,18.6
2022-09-07T03:40:00.399Z,18.6
2022-09-07T03:41:00.299Z,18.6
2022-09-07T03:42:00.294Z,18.7
2022-09-07T03:43:00.467Z,18.7
2022-09-07T03:44:00.290Z,18.8
2022-09-07T03:45:00.337Z,18.8
2022-09-07T03:46:00.408Z,18.8
2022-09-07T03:47:00.378Z,18.9
2022-09-07T03:48:00.313Z,18.8
2022-09-07T03:49:00.439Z,18.8
2022-09-07T03:50:00.431Z,18.8
2022-09-07T03:51:00.349Z,18.7
2022-09-07T03:52:00.416Z,18.7
2022-09-07T03:53:00.440Z,18.8
2022-09-07T03:54:00.296Z,18.9
2022-09-07T03:55:00.384Z,19.0
2022-09-07T03:56:00.291Z,19.0
2022-09-07T03:57:00.411Z,19.0
2022-09-07T03:58:00.297Z,19.0
2022-09-07T03:59:00.297Z,18.9
2022-09-07T04:00:00.382Z,18.9
2022-09-07T04:01:00.382Z,19.0
2022-09-07T04:02:00.335Z,19.0
2022-09-07T04:03:00.278Z,19.0
2022-09-07T04:04:02.465Z,19.0
2022-09-07T04:05:00.301Z,18.9
2022-09-07T04:06:00.393Z,18.9
2022-09-07T04:07:00.277Z,18.9
2022-09-07T04:08:00.337Z,18.9
2022-09-07T04:09:00.298Z,18.8
2022-09-07T04:10:00.299Z,18.8
2022-09-07T04:11:00.330Z,18.8
2022-09-07T04:12:00.424Z,18.8
2022-09-07T04:13:00.363Z,18.9
2022-09-07T04:14:00.358Z,18.9
2022-09-07T04:15:00.335Z,18.9
2022-09-07T04:16:00.366Z,18.9
2022-09-07T04:17:00.335Z,18.9
2022-09-07T04:18:00.405Z,18.9
2022-09-07T04:19:00.322Z,19.0
2022-09-07T04:20:00.296Z,19.0
2022-09-07T04:21:00.321Z,19.1
2022-09-07T04:22:00.310Z,19.1
2022-09-07T04:23:00.282Z,19.1
2022-09-07T04:24:00.385Z,19.1
2022-09-07T04:25:00.339Z,19.1
2022-09-07T04:26:00.305Z,19.1
2022-09-07T04:27:00.408Z,19.1
2022-09-07T04:28:00.300Z,19.1
2022-09-07T04:29:00.317Z,19.1
2022-09-07T04:30:00.457Z,19.1
2022-09-07T04:31:00.419Z,19.2
2022-09-07T04:32:00.329Z,19.3
2022-09-07T04:33:00.292Z,19.3
2022-09-07T04:34:00.303Z,19.4
2022-09-07T04:35:00.291Z,19.4
2022-09-07T04:36:00.378Z,19.4
2022-09-07T04:37:00.304Z,19.3
2022-09-07T04:38:00.293Z,19.3
2022-09-07T04:39:00.326Z,19.3
2022-09-07T04:40:00.534Z,19.2
2022-09-07T04:41:00.310Z,19.2
2022-09-07T04:42:00.508Z,19.2
2022-09-07T04:43:00.310Z,19.2
2022-09-07T04:44:00.286Z,19.3
2022-09-07T04:45:00.413Z,19.5
2022-09-07T04:46:00.436Z,19.7
2022-09-07T04:47:00.285Z,19.8
2022-09-07T04:48:00.464Z,19.8
2022-09-07T04:49:00.388Z,19.8
2022-09-07T04:50:00.390Z,19.7
2022-09-07T04:51:05.247Z,19.7
2022-09-07T04:52:00.294Z,19.7
2022-09-07T04:53:00.325Z,19.8
2022-09-07T04:54:00.411Z,19.8
2022-09-07T04:55:00.316Z,19.9
2022-09-07T04:56:00.304Z,19.9
2022-09-07T04:57:00.440Z,19.9
2022-09-07T04:58:00.281Z,19.9
2022-09-07T04:59:00.315Z,19.9
2022-09-07T05:00:00.447Z,19.9
2022-09-07T05:01:00.484Z,19.9
2022-09-07T05:02:00.441Z,20.0
2022-09-07T05:03:00.286Z,20.1
2022-09-07T05:04:00.303Z,20.2
2022-09-07T05:05:02.768Z,20.4
2022-09-07T05:06:00.296Z,20.5
2022-09-07T05:07:00.414Z,20.5
2022-09-07T05:08:00.395Z,20.4
2022-09-07T05:09:00.328Z,20.4
2022-09-07T05:10:00.309Z,20.4
2022-09-07T05:11:00.328Z,20.4
2022-09-07T05:12:00.394Z,20.4
2022-09-07T05:13:00.298Z,20.5
2022-09-07T05:14:00.402Z,20.4
2022-09-07T05:15:00.316Z,20.4
2022-09-07T05:16:00.301Z,20.3
2022-09-07T05:17:00.411Z,20.3
2022-09-07T05:18:00.318Z,20.3
2022-09-07T05:19:00.299Z,20.3
2022-09-07T05:20:00.382Z,20.4
2022-09-07T05:21:00.296Z,20.5
2022-09-07T05:22:00.316Z,20.8
2022-09-07T05:23:00.301Z,21.0
2022-09-07T05:24:00.336Z,21.1
2022-09-07T05:25:00.332Z,21.4
2022-09-07T05:26:00.418Z,22.0
2022-09-07T05:27:00.402Z,21.8
2022-09-07T05:28:00.339Z,21.6
2022-09-07T05:32:00.468Z,21.1
2022-09-07T05:33:00.295Z,20.9
2022-09-07T05:34:30.955Z,20.6
2022-09-07T05:35:00.317Z,20.4
2022-09-07T05:36:00.336Z,20.3
2022-09-07T05:37:00.297Z,20.3
2022-09-07T05:38:00.385Z,20.3
2022-09-07T05:39:00.309Z,20.3
2022-09-07T05:40:00.417Z,20.0
2022-09-07T05:41:00.308Z,19.9
2022-09-07T05:42:00.376Z,19.8
2022-09-07T05:43:00.312Z,19.8
2022-09-07T05:45:00.298Z,19.6
2022-09-07T05:46:00.370Z,19.6
2022-09-07T05:47:00.374Z,19.6
2022-09-07T05:48:00.286Z,19.6
2022-09-07T05:49:00.334Z,19.6
2022-09-07T05:50:00.426Z,19.6
2022-09-07T05:51:00.363Z,19.7
2022-09-07T05:52:00.433Z,19.7
2022-09-07T05:53:00.344Z,19.7
2022-09-07T05:54:00.414Z,19.7
2022-09-07T05:55:19.348Z,19.8
2022-09-07T05:56:03.956Z,19.8
2022-09-07T05:57:00.559Z,19.6
2022-09-07T05:58:00.579Z,19.6
2022-09-07T05:59:00.416Z,19.5
2022-09-07T06:00:00.472Z,19.4
2022-09-07T06:01:00.517Z,19.3
2022-09-07T06:02:00.385Z,19.2
2022-09-07T06:03:00.803Z,19.2
2022-09-07T06:04:00.301Z,19.3
2022-09-07T06:05:00.279Z,19.5
2022-09-07T06:06:00.369Z,19.4
2022-09-07T06:07:22.745Z,19.4
2022-09-07T06:08:00.330Z,19.4
2022-09-07T06:09:00.311Z,19.4
2022-09-07T06:11:00.401Z,19.5
2022-09-07T06:12:00.315Z,19.6
2022-09-07T06:13:00.296Z,19.7
2022-09-07T06:14:00.381Z,19.7
2022-09-07T06:15:00.297Z,19.8
2022-09-07T06:16:00.296Z,19.8
2022-09-07T06:17:00.416Z,19.8
2022-09-07T06:18:00.307Z,19.8
2022-09-07T06:19:00.315Z,19.8
2022-09-07T06:20:00.300Z,19.8
2022-09-07T06:21:00.407Z,20.0
2022-09-07T06:22:00.349Z,20.0
2022-09-07T06:23:00.322Z,20.1
2022-09-07T06:24:00.371Z,20.2
2022-09-07T06:25:00.319Z,20.4
2022-09-07T06:26:00.371Z,20.4
2022-09-07T06:27:00.381Z,20.5
2022-09-07T06:28:00.295Z,20.6
2022-09-07T06:29:00.369Z,20.5
2022-09-07T06:30:00.303Z,20.5
2022-09-07T06:31:00.308Z,20.7
2022-09-07T06:33:00.457Z,21.0
2022-09-07T06:34:00.393Z,21.3
2022-09-07T06:35:00.598Z,21.6
2022-09-07T06:36:00.389Z,21.8
2022-09-07T06:37:00.365Z,22.0
2022-09-07T06:38:00.312Z,22.1
2022-09-07T06:39:00.293Z,22.2
2022-09-07T06:40:00.423Z,22.2
2022-09-07T06:42:00.474Z,22.1
2022-09-07T06:43:00.498Z,22.1
2022-09-07T06:44:00.313Z,22.2
2022-09-07T06:45:00.342Z,22.2
2022-09-07T06:48:00.361Z,22.5
2022-09-07T06:49:00.482Z,22.6
2022-09-07T06:50:00.342Z,22.7
2022-09-07T06:51:00.444Z,22.8
2022-09-07T06:52:00.276Z,22.9
2022-09-07T06:55:00.937Z,23.1
2022-09-07T06:56:00.298Z,23.1
2022-09-07T06:57:00.310Z,23.1
2022-09-07T06:58:00.309Z,23.0
2022-09-07T06:59:00.290Z,23.0
2022-09-07T07:00:00.453Z,22.9
2022-09-07T07:01:00.332Z,22.8
2022-09-07T07:02:00.313Z,22.6
2022-09-07T07:03:00.429Z,22.5
2022-09-07T07:04:00.288Z,22.4
2022-09-07T07:05:00.314Z,22.3
2022-09-07T07:06:00.409Z,22.2
2022-09-07T07:07:00.313Z,22.2
2022-09-07T07:08:00.306Z,22.2
2022-09-07T07:09:00.365Z,22.2
2022-09-07T07:10:00.320Z,22.1
2022-09-07T07:11:00.435Z,21.9
2022-09-07T07:12:00.371Z,21.8
2022-09-07T07:13:00.319Z,21.7
2022-09-07T07:14:00.433Z,21.6
2022-09-07T07:15:00.283Z,21.6
2022-09-07T07:16:00.325Z,21.6
2022-09-07T07:17:00.435Z,21.6
2022-09-07T07:18:05.507Z,21.5
2022-09-07T07:19:00.311Z,21.5
2022-09-07T07:20:00.288Z,21.5
2022-09-07T07:21:00.385Z,21.6
2022-09-07T07:22:36.042Z,21.6
2022-09-07T07:23:00.380Z,21.7
2022-09-07T07:24:02.943Z,21.7
2022-09-07T07:25:00.293Z,21.8
2022-09-07T07:26:00.294Z,21.9
2022-09-07T07:27:00.327Z,21.9
2022-09-07T07:29:00.858Z,22.0
2022-09-07T07:30:00.348Z,22.0
2022-09-07T07:31:00.312Z,22.0
2022-09-07T07:32:00.294Z,21.9
2022-09-07T07:33:00.383Z,22.0
2022-09-07T07:34:00.434Z,22.0
2022-09-07T07:35:00.507Z,22.0
2022-09-07T07:36:00.485Z,22.0
2022-09-07T07:37:00.299Z,22.0
2022-09-07T07:39:01.159Z,22.1
2022-09-07T07:40:16.923Z,22.2
2022-09-07T07:42:03.314Z,22.3
2022-09-07T07:43:00.308Z,22.3
2022-09-07T07:44:00.543Z,22.3
2022-09-07T07:46:02.579Z,22.4
2022-09-07T07:47:00.385Z,22.4
2022-09-07T07:48:00.371Z,22.3
2022-09-07T07:49:00.307Z,22.3
2022-09-07T07:51:01.414Z,22.4
2022-09-07T07:54:00.634Z,22.5
2022-09-07T07:55:00.446Z,22.5
2022-09-07T07:56:00.337Z,22.5
2022-09-07T07:57:00.293Z,22.5
2022-09-07T07:58:00.311Z,22.5
2022-09-07T07:59:00.282Z,22.5
2022-09-07T08:00:00.368Z,22.5
2022-09-07T08:01:00.403Z,22.6
2022-09-07T08:02:00.457Z,22.6
2022-09-07T08:03:00.310Z,22.6
2022-09-07T08:04:00.371Z,22.6
2022-09-07T08:05:00.367Z,22.5
2022-09-07T08:06:00.307Z,22.4
2022-09-07T08:07:00.300Z,22.4
2022-09-07T08:08:00.282Z,22.3
2022-09-07T08:09:00.294Z,22.3
2022-09-07T08:10:00.359Z,22.3
2022-09-07T08:11:00.317Z,22.3
2022-09-07T08:12:00.351Z,22.3
2022-09-07T08:13:00.291Z,22.4
2022-09-07T08:14:00.396Z,22.5
2022-09-07T08:15:00.392Z,22.6
2022-09-07T08:16:00.513Z,22.6
2022-09-07T08:17:00.320Z,22.6
2022-09-07T08:18:00.365Z,22.7
2022-09-07T08:19:00.293Z,22.8
2022-09-07T08:20:00.387Z,22.9
2022-09-07T08:21:00.368Z,23.0
2022-09-07T08:22:00.385Z,23.1
2022-09-07T08:23:00.313Z,23.0
2022-09-07T08:24:00.300Z,22.9
2022-09-07T08:25:00.286Z,22.9
2022-09-07T08:26:00.289Z,22.7
2022-09-07T08:27:00.297Z,22.6
2022-09-07T08:28:00.393Z,22.6
2022-09-07T08:29:00.279Z,22.6
2022-09-07T08:30:00.302Z,22.6
2022-09-07T08:31:00.307Z,22.5
2022-09-07T08:32:00.373Z,22.4
2022-09-07T08:33:00.317Z,22.2
2022-09-07T08:34:00.573Z,22.0
2022-09-07T08:35:00.428Z,22.0
2022-09-07T08:36:00.398Z,22.0
2022-09-07T08:37:00.285Z,21.9
2022-09-07T08:38:00.316Z,21.8
2022-09-07T08:39:00.278Z,21.8
2022-09-07T08:40:00.513Z,21.8
2022-09-07T08:41:00.308Z,21.8
2022-09-07T08:42:00.390Z,21.8
2022-09-07T08:43:00.347Z,21.8
2022-09-07T08:44:00.383Z,21.7
2022-09-07T08:45:00.449Z,21.7
2022-09-07T08:46:00.392Z,21.6
2022-09-07T08:47:00.491Z,21.4
2022-09-07T08:48:00.290Z,21.3
2022-09-07T08:49:00.314Z,21.1
2022-09-07T08:50:00.275Z,21.1
2022-09-07T08:51:00.591Z,21.0
2022-09-07T08:52:00.310Z,20.9
2022-09-07T08:53:00.297Z,20.7
2022-09-07T08:54:00.297Z,20.7
2022-09-07T08:55:00.425Z,20.6
2022-09-07T08:56:00.390Z,20.6
2022-09-07T08:57:22.046Z,20.5
2022-09-07T08:58:00.300Z,20.6
2022-09-07T08:59:00.293Z,20.6
2022-09-07T09:00:00.297Z,20.5
2022-09-07T09:02:31.767Z,20.4
2022-09-07T09:03:30.116Z,20.4
2022-09-07T09:04:16.950Z,20.4
2022-09-07T09:06:00.643Z,20.5
2022-09-07T09:06:11.768Z,20.5
2022-09-07T09:07:00.536Z,20.6
2022-09-07T09:08:00.349Z,20.6
2022-09-07T09:09:00.287Z,20.5
2022-09-07T09:10:00.404Z,20.4
2022-09-07T09:11:00.293Z,20.2
2022-09-07T09:12:00.385Z,20.1
2022-09-07T09:13:00.283Z,20.1
2022-09-07T09:14:00.316Z,20.2
2022-09-07T09:15:00.310Z,20.3
2022-09-07T09:16:00.337Z,20.4
2022-09-07T09:17:00.300Z,20.4
2022-09-07T09:18:00.456Z,20.5
2022-09-07T09:19:00.277Z,20.6
2022-09-07T09:20:00.302Z,20.8
2022-09-07T09:21:00.313Z,20.9
2022-09-07T09:22:00.300Z,21.1
2022-09-07T09:23:00.346Z,21.2
2022-09-07T09:24:00.407Z,21.2
2022-09-07T09:25:00.377Z,21.2
2022-09-07T09:26:00.296Z,21.2
2022-09-07T09:27:00.416Z,21.1
2022-09-07T09:28:00.363Z,21.1
2022-09-07T09:29:00.399Z,21.0
2022-09-07T09:30:00.391Z,20.9
2022-09-07T09:31:00.372Z,20.7
2022-09-07T09:32:00.299Z,20.6
2022-09-07T09:33:00.306Z,20.7
2022-09-07T09:34:01.288Z,21.4
2022-09-07T09:35:00.280Z,23.0
2022-09-07T09:36:00.382Z,24.2
2022-09-07T09:37:00.296Z,23.9
2022-09-07T09:38:00.390Z,23.7
2022-09-07T09:39:00.263Z,23.4
2022-09-07T09:40:02.804Z,23.2
2022-09-07T09:41:00.274Z,23.2
2022-09-07T09:42:00.360Z,24.7
2022-09-07T09:43:00.340Z,24.3
2022-09-07T09:44:00.566Z,24.5
2022-09-07T09:45:00.345Z,24.0
2022-09-07T09:46:14.031Z,23.5
2022-09-07T09:48:00.344Z,23.1
2022-09-07T09:49:00.281Z,23.1
2022-09-07T09:50:00.432Z,23.1
2022-09-07T09:52:32.037Z,23.0
2022-09-07T09:53:00.512Z,22.9
2022-09-07T09:54:00.304Z,22.9
2022-09-07T09:55:23.591Z,23.0
2022-09-07T09:56:00.293Z,23.0
2022-09-07T09:57:00.280Z,23.0
2022-09-07T09:59:56.685Z,23.0
2022-09-07T10:00:03.901Z,23.0
2022-09-07T10:01:24.293Z,23.0
2022-09-07T10:04:01.488Z,23.0
2022-09-07T10:05:00.290Z,22.9
2022-09-07T10:06:00.312Z,22.9
2022-09-07T10:07:00.422Z,22.8
2022-09-07T10:08:00.301Z,22.9
2022-09-07T10:09:00.401Z,23.1
2022-09-07T10:10:00.379Z,23.4
2022-09-07T10:11:00.331Z,23.7
2022-09-07T10:12:07.832Z,24.2
2022-09-07T10:13:00.319Z,24.8
2022-09-07T10:14:00.380Z,25.2
2022-09-07T10:15:00.332Z,25.5
2022-09-07T10:16:00.449Z,25.6
2022-09-07T10:17:01.744Z,25.8
2022-09-07T10:18:00.440Z,25.8
2022-09-07T10:19:00.289Z,26.2
2022-09-07T10:20:00.375Z,26.4
2022-09-07T10:21:00.303Z,26.5
2022-09-07T10:22:00.351Z,26.1
2022-09-07T10:23:00.307Z,26.2
2022-09-07T10:24:00.398Z,26.2
2022-09-07T10:25:00.396Z,26.4
2022-09-07T10:26:00.304Z,26.7
2022-09-07T10:27:00.281Z,26.7
2022-09-07T10:28:00.284Z,26.6
2022-09-07T10:29:08.188Z,26.5
2022-09-07T10:30:00.298Z,26.7
2022-09-07T10:31:00.350Z,26.8
2022-09-07T10:32:00.312Z,26.4
2022-09-07T10:33:00.293Z,26.1
2022-09-07T10:34:27.013Z,25.6
2022-09-07T10:35:00.372Z,25.3
2022-09-07T10:36:00.292Z,25.1
2022-09-07T10:37:00.312Z,25.0
2022-09-07T10:38:00.313Z,24.9
2022-09-07T10:39:00.380Z,24.8
2022-09-07T10:40:00.856Z,24.7
2022-09-07T10:41:00.291Z,24.8
2022-09-07T10:42:00.320Z,24.6
2022-09-07T10:43:22.239Z,24.8
2022-09-07T10:44:00.402Z,24.6
2022-09-07T10:45:00.358Z,24.5
2022-09-07T10:46:00.357Z,24.6
2022-09-07T10:47:00.367Z,24.5
2022-09-07T10:48:00.321Z,24.6
2022-09-07T10:49:00.300Z,24.7
2022-09-07T10:50:23.504Z,24.8
2022-09-07T10:51:07.379Z,25.0
2022-09-07T10:52:00.295Z,25.1
2022-09-07T10:53:00.306Z,25.2
2022-09-07T10:54:30.692Z,25.2
2022-09-07T10:55:00.309Z,25.1
2022-09-07T10:56:00.893Z,25.1
2022-09-07T10:57:00.325Z,25.2
2022-09-07T10:58:00.318Z,25.1
2022-09-07T10:59:02.008Z,25.1
2022-09-07T11:00:08.343Z,25.2
2022-09-07T11:01:00.330Z,25.3
2022-09-07T11:02:00.421Z,25.3
2022-09-07T11:03:26.572Z,25.3
2022-09-07T11:04:00.392Z,25.3
2022-09-07T11:05:00.525Z,25.4
2022-09-07T11:06:00.331Z,25.3
2022-09-07T11:07:00.380Z,25.3
2022-09-07T11:08:00.357Z,25.4
2022-09-07T11:09:17.057Z,25.4
2022-09-07T11:10:00.430Z,25.5
2022-09-07T11:11:00.378Z,25.6
2022-09-07T11:12:02.268Z,25.7
2022-09-07T11:13:00.301Z,25.8
2022-09-07T11:14:12.533Z,25.8
2022-09-07T11:15:00.303Z,25.8
2022-09-07T11:16:00.474Z,25.7
2022-09-07T11:17:00.728Z,25.6
2022-09-07T11:18:00.311Z,25.6
2022-09-07T11:20:00.595Z,25.6
2022-09-07T11:21:00.392Z,25.6
2022-09-07T11:22:00.319Z,25.6
2022-09-07T11:23:00.433Z,25.7
2022-09-07T11:24:00.325Z,25.8
2022-09-07T11:25:30.433Z,25.8
2022-09-07T11:26:00.643Z,25.7
2022-09-07T11:27:00.471Z,25.6
2022-09-07T11:28:00.445Z,25.6
2022-09-07T11:29:29.905Z,25.6
2022-09-07T11:30:00.315Z,25.7
2022-09-07T11:31:00.794Z,25.7
2022-09-07T11:32:00.312Z,25.7
2022-09-07T11:33:00.381Z,25.7
2022-09-07T11:34:25.043Z,25.7
2022-09-07T11:35:00.299Z,25.8
2022-09-07T11:36:00.306Z,25.7
2022-09-07T11:37:00.325Z,25.7
2022-09-07T11:38:00.306Z,25.5
2022-09-07T11:39:00.390Z,25.5
2022-09-07T11:40:00.478Z,25.5
2022-09-07T11:41:00.385Z,25.4
2022-09-07T11:42:00.726Z,25.4
2022-09-07T11:43:00.296Z,25.4
2022-09-07T11:44:00.298Z,25.4
2022-09-07T11:45:00.383Z,25.4
2022-09-07T11:46:00.459Z,25.4
2022-09-07T11:47:00.437Z,25.5
2022-09-07T11:48:00.329Z,25.5
2022-09-07T11:49:00.366Z,25.5
2022-09-07T11:50:00.392Z,25.5
2022-09-07T11:51:00.341Z,25.5
2022-09-07T11:52:04.980Z,25.5
2022-09-07T11:53:00.379Z,25.5
2022-09-07T11:54:00.304Z,25.5
2022-09-07T11:55:00.294Z,25.4
2022-09-07T11:56:00.384Z,25.4
2022-09-07T11:57:00.314Z,25.4
2022-09-07T11:58:00.298Z,25.4
2022-09-07T11:59:00.371Z,25.4
2022-09-07T12:00:00.321Z,25.4
2022-09-07T12:01:00.293Z,25.4
2022-09-07T12:02:00.291Z,25.5
2022-09-07T12:03:01.060Z,25.5
2022-09-07T12:04:00.480Z,25.5
2022-09-07T12:05:00.414Z,25.5
2022-09-07T12:06:00.300Z,25.4
2022-09-07T12:07:00.314Z,25.4
2022-09-07T12:08:00.323Z,25.4
2022-09-07T12:09:00.344Z,25.4
2022-09-07T12:10:00.767Z,25.4
2022-09-07T12:11:00.435Z,25.4
2022-09-07T12:12:00.309Z,25.4
2022-09-07T12:13:00.280Z,25.4
2022-09-07T12:14:00.295Z,25.4
2022-09-07T12:15:00.322Z,25.4
2022-09-07T12:16:00.492Z,25.4
2022-09-07T12:17:00.317Z,25.4
2022-09-07T12:18:00.299Z,25.4
2022-09-07T12:19:00.305Z,25.3
2022-09-07T12:20:00.333Z,25.2
2022-09-07T12:21:00.467Z,25.2
2022-09-07T12:22:00.360Z,25.3
2022-09-07T12:23:04.556Z,25.2
2022-09-07T12:24:00.320Z,25.2
2022-09-07T12:25:00.382Z,25.3
2022-09-07T12:26:00.319Z,25.4
2022-09-07T12:27:00.375Z,25.5
2022-09-07T12:28:00.284Z,25.5
2022-09-07T12:29:00.307Z,25.5
2022-09-07T12:30:00.314Z,25.6
2022-09-07T12:31:00.399Z,25.6
2022-09-07T12:32:52.630Z,25.7
2022-09-07T12:33:00.474Z,25.7
2022-09-07T12:34:00.406Z,25.7
2022-09-07T12:35:00.278Z,25.7
2022-09-07T12:36:00.319Z,25.7
2022-09-07T12:37:00.313Z,25.7
2022-09-07T12:38:00.297Z,25.7
2022-09-07T12:39:00.385Z,25.8
2022-09-07T12:40:00.418Z,25.9
2022-09-07T12:41:00.318Z,25.9
2022-09-07T12:43:09.513Z,26.0
2022-09-07T12:44:02.054Z,26.0
2022-09-07T12:45:00.473Z,26.0
2022-09-07T12:46:00.333Z,25.9
2022-09-07T12:47:00.326Z,26.0
2022-09-07T12:48:00.316Z,26.0
2022-09-07T12:49:00.302Z,26.1
2022-09-07T12:50:00.311Z,26.1
2022-09-07T12:51:00.378Z,26.1
2022-09-07T12:52:06.839Z,26.1
2022-09-07T12:53:00.310Z,25.9
2022-09-07T12:54:00.331Z,25.8
2022-09-07T12:55:26.175Z,25.8
2022-09-07T12:56:16.354Z,25.8
2022-09-07T12:57:29.988Z,25.8
2022-09-07T12:58:00.390Z,25.7
2022-09-07T12:59:00.772Z,25.6
2022-09-07T13:00:00.625Z,25.6
2022-09-07T13:01:00.335Z,25.6
2022-09-07T13:02:00.450Z,25.6
2022-09-07T13:03:00.570Z,25.6
2022-09-07T13:04:00.439Z,25.6
2022-09-07T13:05:00.297Z,25.5
2022-09-07T13:06:00.390Z,25.5
2022-09-07T13:07:03.722Z,25.6
2022-09-07T13:08:08.325Z,25.6
2022-09-07T13:09:00.495Z,25.6
2022-09-07T13:10:00.295Z,25.6
2022-09-07T13:11:00.284Z,25.7
2022-09-07T13:12:00.287Z,25.7
2022-09-07T13:13:00.669Z,25.7
2022-09-07T13:14:03.848Z,25.7
2022-09-07T13:15:00.443Z,25.7
2022-09-07T13:16:00.325Z,25.7
2022-09-07T13:18:00.291Z,25.7
2022-09-07T13:19:01.912Z,25.7
2022-09-07T13:20:01.210Z,25.7
2022-09-07T13:21:00.415Z,25.6
2022-09-07T13:22:00.338Z,25.7
2022-09-07T13:23:00.314Z,25.7
2022-09-07T13:24:43.918Z,25.7
2022-09-07T13:25:00.317Z,25.7
2022-09-07T13:26:00.376Z,25.7
2022-09-07T13:27:00.434Z,25.6
2022-09-07T13:28:00.352Z,25.6
2022-09-07T13:29:00.456Z,25.6
2022-09-07T13:30:00.404Z,25.6
2022-09-07T13:31:00.373Z,25.5
2022-09-07T13:32:00.369Z,25.5
2022-09-07T13:33:08.355Z,25.6
2022-09-07T13:34:00.315Z,25.5
2022-09-07T13:35:00.269Z,25.5
2022-09-07T13:36:00.304Z,25.6
2022-09-07T13:37:00.268Z,25.6
2022-09-07T13:38:00.430Z,25.5
2022-09-07T13:39:00.402Z,25.5
2022-09-07T13:40:00.506Z,25.5
2022-09-07T13:41:00.360Z,25.4
2022-09-07T13:42:00.319Z,25.3
2022-09-07T13:43:00.278Z,25.2
2022-09-07T13:44:00.397Z,25.2
2022-09-07T13:45:00.306Z,25.2